sensor_id;sensor_type;location;lat;lon;timestamp;temperature;humidity
3942;DHT22;1985;48.592;8.850;2022-11-14T00:00:31;5.80;99.90
3942;DHT22;1985;48.592;8.850;2022-11-14T00:03:03;5.90;99.90
3942;DHT22;1985;48.592;8.850;2022-11-14T00:05:29;6.00;99.90
3942;DHT22;1985;48.592;8.850;2022-11-14T00:07:55;6.00;99.90
3942;DHT22;1985;48.592;8.850;2022-11-14T00:10:21;5.90;99.90
3942;DHT22;1985;48.592;8.850;2022-11-14T00:12:47;5.90;99.90
3942;DHT22;1985;48.592;8.850;2022-11-14T00:15:13;5.90;99.90
3942;DHT22;1985;48.592;8.850;2022-11-14T00:17:39;5.90;99.90
3942;DHT22;1985;48.592;8.850;2022-11-14T00:20:06;5.80;99.90
3942;DHT22;1985;48.592;8.850;2022-11-14T00:22:32;5.80;99.90
3942;DHT22;1985;48.592;8.850;2022-11-14T00:24:58;5.80;99.90
3942;DHT22;1985;48.592;8.850;2022-11-14T00:27:24;5.80;99.90
3942;DHT22;1985;48.592;8.850;2022-11-14T00:29:50;5.80;99.90
3942;DHT22;1985;48.592;8.850;2022-11-14T00:32:15;5.80;99.90
3942;DHT22;1985;48.592;8.850;2022-11-14T00:34:41;5.90;99.90
3942;DHT22;1985;48.592;8.850;2022-11-14T00:37:07;6.00;99.90
3942;DHT22;1985;48.592;8.850;2022-11-14T00:39:32;6.10;99.90
3942;DHT22;1985;48.592;8.850;2022-11-14T00:41:58;6.00;99.90
3942;DHT22;1985;48.592;8.850;2022-11-14T00:44:23;6.20;99.90
3942;DHT22;1985;48.592;8.850;2022-11-14T00:46:49;6.30;99.90
3942;DHT22;1985;48.592;8.850;2022-11-14T00:49:15;6.20;99.90
3942;DHT22;1985;48.592;8.850;2022-11-14T00:51:40;6.10;99.90
3942;DHT22;1985;48.592;8.850;2022-11-14T00:54:06;6.20;99.90
3942;DHT22;1985;48.592;8.850;2022-11-14T00:56:31;6.30;99.90
3942;DHT22;1985;48.592;8.850;2022-11-14T00:58:57;6.30;99.90
3942;DHT22;1985;48.592;8.850;2022-11-14T01:01:23;6.20;99.90
3942;DHT22;1985;48.592;8.850;2022-11-14T01:03:49;6.20;99.90
3942;DHT22;1985;48.592;8.850;2022-11-14T01:06:16;6.20;99.90
3942;DHT22;1985;48.592;8.850;2022-11-14T01:08:42;6.10;99.90
3942;DHT22;1985;48.592;8.850;2022-11-14T01:11:11;6.20;99.90
3942;DHT22;1985;48.592;8.850;2022-11-14T01:13:37;6.20;99.90
3942;DHT22;1985;48.592;8.850;2022-11-14T01:16:04;6.10;99.90
3942;DHT22;1985;48.592;8.850;2022-11-14T01:18:29;6.10;99.90
3942;DHT22;1985;48.592;8.850;2022-11-14T01:20:55;6.00;99.90
3942;DHT22;1985;48.592;8.850;2022-11-14T01:23:21;6.10;99.90
3942;DHT22;1985;48.592;8.850;2022-11-14T01:25:46;6.10;99.90
3942;DHT22;1985;48.592;8.850;2022-11-14T01:28:15;6.20;99.90
3942;DHT22;1985;48.592;8.850;2022-11-14T01:30:42;6.10;99.90
3942;DHT22;1985;48.592;8.850;2022-11-14T01:33:08;6.10;99.90
3942;DHT22;1985;48.592;8.850;2022-11-14T01:35:35;6.10;99.90
3942;DHT22;1985;48.592;8.850;2022-11-14T01:38:02;6.00;99.90
3942;DHT22;1985;48.592;8.850;2022-11-14T01:40:28;5.70;99.90
3942;DHT22;1985;48.592;8.850;2022-11-14T01:48:23;5.50;99.90
3942;DHT22;1985;48.592;8.850;2022-11-14T01:50:54;5.60;99.90
3942;DHT22;1985;48.592;8.850;2022-11-14T01:53:20;5.70;99.90
3942;DHT22;1985;48.592;8.850;2022-11-14T01:55:45;5.90;99.90
3942;DHT22;1985;48.592;8.850;2022-11-14T01:58:11;5.90;99.90
3942;DHT22;1985;48.592;8.850;2022-11-14T02:00:37;5.70;99.90
3942;DHT22;1985;48.592;8.850;2022-11-14T02:03:03;5.50;99.90
3942;DHT22;1985;48.592;8.850;2022-11-14T02:05:28;5.50;99.90
3942;DHT22;1985;48.592;8.850;2022-11-14T02:07:55;5.30;99.90
3942;DHT22;1985;48.592;8.850;2022-11-14T02:10:21;5.40;99.90
3942;DHT22;1985;48.592;8.850;2022-11-14T02:12:48;5.40;99.90
3942;DHT22;1985;48.592;8.850;2022-11-14T02:15:14;5.40;99.90
3942;DHT22;1985;48.592;8.850;2022-11-14T02:17:40;5.40;99.90
3942;DHT22;1985;48.592;8.850;2022-11-14T02:22:42;5.50;99.90
3942;DHT22;1985;48.592;8.850;2022-11-14T02:25:09;5.40;99.90
3942;DHT22;1985;48.592;8.850;2022-11-14T02:27:38;5.50;99.90
3942;DHT22;1985;48.592;8.850;2022-11-14T02:30:05;5.60;99.90
3942;DHT22;1985;48.592;8.850;2022-11-14T02:32:31;5.60;99.90
3942;DHT22;1985;48.592;8.850;2022-11-14T02:34:57;5.60;99.90
3942;DHT22;1985;48.592;8.850;2022-11-14T02:37:22;5.60;99.90
3942;DHT22;1985;48.592;8.850;2022-11-14T02:39:50;5.70;99.90
3942;DHT22;1985;48.592;8.850;2022-11-14T02:42:15;5.60;99.90
3942;DHT22;1985;48.592;8.850;2022-11-14T02:44:41;5.60;99.90
3942;DHT22;1985;48.592;8.850;2022-11-14T02:47:07;5.50;99.90
3942;DHT22;1985;48.592;8.850;2022-11-14T02:49:33;5.30;99.90
3942;DHT22;1985;48.592;8.850;2022-11-14T02:51:58;5.30;99.90
3942;DHT22;1985;48.592;8.850;2022-11-14T02:54:24;5.20;99.90
3942;DHT22;1985;48.592;8.850;2022-11-14T02:56:49;5.20;99.90
3942;DHT22;1985;48.592;8.850;2022-11-14T02:59:15;5.00;99.90
3942;DHT22;1985;48.592;8.850;2022-11-14T03:01:41;5.00;99.90
3942;DHT22;1985;48.592;8.850;2022-11-14T03:04:07;4.80;99.90
3942;DHT22;1985;48.592;8.850;2022-11-14T03:06:32;4.70;99.90
3942;DHT22;1985;48.592;8.850;2022-11-14T03:08:58;4.60;99.90
3942;DHT22;1985;48.592;8.850;2022-11-14T03:11:24;4.70;99.90
3942;DHT22;1985;48.592;8.850;2022-11-14T03:13:50;4.60;99.90
3942;DHT22;1985;48.592;8.850;2022-11-14T03:16:15;4.50;99.90
3942;DHT22;1985;48.592;8.850;2022-11-14T03:18:41;4.50;99.90
3942;DHT22;1985;48.592;8.850;2022-11-14T03:21:13;4.50;99.90
3942;DHT22;1985;48.592;8.850;2022-11-14T03:23:39;4.50;99.90
3942;DHT22;1985;48.592;8.850;2022-11-14T03:26:06;4.40;99.90
3942;DHT22;1985;48.592;8.850;2022-11-14T03:28:32;4.50;99.90
3942;DHT22;1985;48.592;8.850;2022-11-14T03:30:58;4.70;99.90
3942;DHT22;1985;48.592;8.850;2022-11-14T03:33:24;4.80;99.90
3942;DHT22;1985;48.592;8.850;2022-11-14T03:35:51;5.00;99.90
3942;DHT22;1985;48.592;8.850;2022-11-14T03:38:17;5.10;99.90
3942;DHT22;1985;48.592;8.850;2022-11-14T03:40:43;5.20;99.90
3942;DHT22;1985;48.592;8.850;2022-11-14T03:43:09;5.20;99.90
3942;DHT22;1985;48.592;8.850;2022-11-14T03:45:37;5.20;99.90
3942;DHT22;1985;48.592;8.850;2022-11-14T03:48:04;5.10;99.90
3942;DHT22;1985;48.592;8.850;2022-11-14T03:50:30;5.10;99.90
3942;DHT22;1985;48.592;8.850;2022-11-14T03:52:55;5.10;99.90
3942;DHT22;1985;48.592;8.850;2022-11-14T03:55:21;5.00;99.90
3942;DHT22;1985;48.592;8.850;2022-11-14T03:57:46;4.90;99.90
3942;DHT22;1985;48.592;8.850;2022-11-14T04:00:12;4.70;99.90
3942;DHT22;1985;48.592;8.850;2022-11-14T04:02:38;4.60;99.90
3942;DHT22;1985;48.592;8.850;2022-11-14T04:05:04;4.60;99.90
3942;DHT22;1985;48.592;8.850;2022-11-14T04:07:29;4.60;99.90
3942;DHT22;1985;48.592;8.850;2022-11-14T04:09:55;4.50;99.90
3942;DHT22;1985;48.592;8.850;2022-11-14T04:12:20;4.70;99.90
3942;DHT22;1985;48.592;8.850;2022-11-14T04:14:46;4.70;99.90
3942;DHT22;1985;48.592;8.850;2022-11-14T04:17:12;4.80;99.90
3942;DHT22;1985;48.592;8.850;2022-11-14T04:19:37;4.90;99.90
3942;DHT22;1985;48.592;8.850;2022-11-14T04:22:03;4.90;99.90
3942;DHT22;1985;48.592;8.850;2022-11-14T04:24:28;4.90;99.90
3942;DHT22;1985;48.592;8.850;2022-11-14T04:26:54;4.90;99.90
3942;DHT22;1985;48.592;8.850;2022-11-14T04:29:20;5.00;99.90
3942;DHT22;1985;48.592;8.850;2022-11-14T04:31:45;5.10;99.90
3942;DHT22;1985;48.592;8.850;2022-11-14T04:34:11;5.20;99.90
3942;DHT22;1985;48.592;8.850;2022-11-14T04:36:36;5.30;99.90
3942;DHT22;1985;48.592;8.850;2022-11-14T04:39:02;5.30;99.90
3942;DHT22;1985;48.592;8.850;2022-11-14T04:41:28;5.30;99.90
3942;DHT22;1985;48.592;8.850;2022-11-14T04:43:53;5.30;99.90
3942;DHT22;1985;48.592;8.850;2022-11-14T04:46:19;5.20;99.90
3942;DHT22;1985;48.592;8.850;2022-11-14T04:48:45;5.30;99.90
3942;DHT22;1985;48.592;8.850;2022-11-14T04:51:10;5.20;99.90
3942;DHT22;1985;48.592;8.850;2022-11-14T04:53:36;5.30;99.90
3942;DHT22;1985;48.592;8.850;2022-11-14T04:56:02;5.30;99.90
3942;DHT22;1985;48.592;8.850;2022-11-14T04:58:28;5.30;99.90
3942;DHT22;1985;48.592;8.850;2022-11-14T05:00:54;5.40;99.90
3942;DHT22;1985;48.592;8.850;2022-11-14T05:03:22;5.30;99.90
3942;DHT22;1985;48.592;8.850;2022-11-14T05:05:48;5.10;99.90
3942;DHT22;1985;48.592;8.850;2022-11-14T05:08:13;5.20;99.90
3942;DHT22;1985;48.592;8.850;2022-11-14T05:10:42;5.30;99.90
3942;DHT22;1985;48.592;8.850;2022-11-14T05:13:09;5.30;99.90
3942;DHT22;1985;48.592;8.850;2022-11-14T05:15:34;5.30;99.90
3942;DHT22;1985;48.592;8.850;2022-11-14T05:18:00;5.20;99.90
3942;DHT22;1985;48.592;8.850;2022-11-14T05:20:25;5.20;99.90
3942;DHT22;1985;48.592;8.850;2022-11-14T05:22:52;5.20;99.90
3942;DHT22;1985;48.592;8.850;2022-11-14T05:25:18;5.30;99.90
3942;DHT22;1985;48.592;8.850;2022-11-14T05:27:44;5.50;99.90
3942;DHT22;1985;48.592;8.850;2022-11-14T05:30:10;5.60;99.90
3942;DHT22;1985;48.592;8.850;2022-11-14T05:32:36;5.70;99.90
3942;DHT22;1985;48.592;8.850;2022-11-14T05:35:02;5.50;99.90
3942;DHT22;1985;48.592;8.850;2022-11-14T05:37:27;5.50;99.90
3942;DHT22;1985;48.592;8.850;2022-11-14T05:39:53;5.50;99.90
3942;DHT22;1985;48.592;8.850;2022-11-14T05:42:18;5.60;99.90
3942;DHT22;1985;48.592;8.850;2022-11-14T05:44:44;5.70;99.90
3942;DHT22;1985;48.592;8.850;2022-11-14T05:47:10;5.80;99.90
3942;DHT22;1985;48.592;8.850;2022-11-14T05:49:35;5.80;99.90
3942;DHT22;1985;48.592;8.850;2022-11-14T05:52:01;5.70;99.90
3942;DHT22;1985;48.592;8.850;2022-11-14T05:54:26;5.50;99.90
3942;DHT22;1985;48.592;8.850;2022-11-14T05:56:52;5.30;99.90
3942;DHT22;1985;48.592;8.850;2022-11-14T05:59:17;5.20;99.90
3942;DHT22;1985;48.592;8.850;2022-11-14T06:01:43;5.00;99.90
3942;DHT22;1985;48.592;8.850;2022-11-14T06:04:09;4.90;99.90
3942;DHT22;1985;48.592;8.850;2022-11-14T06:06:35;4.70;99.90
3942;DHT22;1985;48.592;8.850;2022-11-14T06:09:01;4.60;99.90
3942;DHT22;1985;48.592;8.850;2022-11-14T06:11:27;4.50;99.90
3942;DHT22;1985;48.592;8.850;2022-11-14T06:13:52;4.50;99.90
3942;DHT22;1985;48.592;8.850;2022-11-14T06:16:18;4.50;99.90
3942;DHT22;1985;48.592;8.850;2022-11-14T06:18:45;4.60;99.90
3942;DHT22;1985;48.592;8.850;2022-11-14T06:21:13;4.50;99.90
3942;DHT22;1985;48.592;8.850;2022-11-14T06:23:39;4.50;99.90
3942;DHT22;1985;48.592;8.850;2022-11-14T06:26:17;4.50;99.90
3942;DHT22;1985;48.592;8.850;2022-11-14T06:28:45;4.50;99.90
3942;DHT22;1985;48.592;8.850;2022-11-14T06:31:10;4.50;99.90
3942;DHT22;1985;48.592;8.850;2022-11-14T06:33:36;4.50;99.90
3942;DHT22;1985;48.592;8.850;2022-11-14T06:36:04;4.40;99.90
3942;DHT22;1985;48.592;8.850;2022-11-14T06:38:31;4.60;99.90
3942;DHT22;1985;48.592;8.850;2022-11-14T06:43:28;4.50;99.90
3942;DHT22;1985;48.592;8.850;2022-11-14T06:45:54;4.60;99.90
3942;DHT22;1985;48.592;8.850;2022-11-14T06:48:20;4.70;99.90
3942;DHT22;1985;48.592;8.850;2022-11-14T06:50:52;4.80;99.90
3942;DHT22;1985;48.592;8.850;2022-11-14T06:53:18;4.70;99.90
3942;DHT22;1985;48.592;8.850;2022-11-14T06:55:54;4.80;99.90
3942;DHT22;1985;48.592;8.850;2022-11-14T06:58:19;4.90;99.90
3942;DHT22;1985;48.592;8.850;2022-11-14T07:00:45;4.90;99.90
3942;DHT22;1985;48.592;8.850;2022-11-14T07:03:11;5.00;99.90
3942;DHT22;1985;48.592;8.850;2022-11-14T07:05:36;5.10;99.90
3942;DHT22;1985;48.592;8.850;2022-11-14T07:08:02;5.30;99.90
3942;DHT22;1985;48.592;8.850;2022-11-14T07:10:27;5.40;99.90
3942;DHT22;1985;48.592;8.850;2022-11-14T07:12:53;5.50;99.90
3942;DHT22;1985;48.592;8.850;2022-11-14T07:15:19;5.40;99.90
3942;DHT22;1985;48.592;8.850;2022-11-14T07:17:44;5.50;99.90
3942;DHT22;1985;48.592;8.850;2022-11-14T07:20:10;5.60;99.90
3942;DHT22;1985;48.592;8.850;2022-11-14T07:22:35;5.60;99.90
3942;DHT22;1985;48.592;8.850;2022-11-14T07:25:01;5.60;99.90
3942;DHT22;1985;48.592;8.850;2022-11-14T07:27:27;5.50;99.90
3942;DHT22;1985;48.592;8.850;2022-11-14T07:29:52;5.50;99.90
3942;DHT22;1985;48.592;8.850;2022-11-14T07:32:18;5.60;99.90
3942;DHT22;1985;48.592;8.850;2022-11-14T07:34:43;5.70;99.90
3942;DHT22;1985;48.592;8.850;2022-11-14T07:37:09;5.70;99.90
3942;DHT22;1985;48.592;8.850;2022-11-14T07:39:34;5.80;99.90
3942;DHT22;1985;48.592;8.850;2022-11-14T07:42:00;5.80;99.90
3942;DHT22;1985;48.592;8.850;2022-11-14T07:44:26;5.80;99.90
3942;DHT22;1985;48.592;8.850;2022-11-14T07:46:51;5.50;99.90
3942;DHT22;1985;48.592;8.850;2022-11-14T07:49:17;5.20;99.90
3942;DHT22;1985;48.592;8.850;2022-11-14T07:51:42;5.30;99.90
3942;DHT22;1985;48.592;8.850;2022-11-14T07:54:11;5.10;99.90
3942;DHT22;1985;48.592;8.850;2022-11-14T07:56:37;5.00;99.90
3942;DHT22;1985;48.592;8.850;2022-11-14T07:59:03;4.80;99.90
3942;DHT22;1985;48.592;8.850;2022-11-14T08:01:28;4.60;99.90
3942;DHT22;1985;48.592;8.850;2022-11-14T08:03:54;4.60;99.90
3942;DHT22;1985;48.592;8.850;2022-11-14T08:06:19;4.50;99.90
3942;DHT22;1985;48.592;8.850;2022-11-14T08:08:45;4.60;99.90
3942;DHT22;1985;48.592;8.850;2022-11-14T08:11:11;4.60;99.90
3942;DHT22;1985;48.592;8.850;2022-11-14T08:13:37;4.60;99.90
3942;DHT22;1985;48.592;8.850;2022-11-14T08:16:07;4.50;99.90
3942;DHT22;1985;48.592;8.850;2022-11-14T08:18:33;4.60;99.90
3942;DHT22;1985;48.592;8.850;2022-11-14T08:21:02;4.60;99.90
3942;DHT22;1985;48.592;8.850;2022-11-14T08:23:28;4.60;99.90
3942;DHT22;1985;48.592;8.850;2022-11-14T08:25:54;4.50;99.90
3942;DHT22;1985;48.592;8.850;2022-11-14T08:28:19;4.60;99.90
3942;DHT22;1985;48.592;8.850;2022-11-14T08:30:45;4.60;99.90
3942;DHT22;1985;48.592;8.850;2022-11-14T08:33:10;4.70;99.90
3942;DHT22;1985;48.592;8.850;2022-11-14T08:35:36;4.80;99.90
3942;DHT22;1985;48.592;8.850;2022-11-14T08:38:02;4.90;99.90
3942;DHT22;1985;48.592;8.850;2022-11-14T08:40:28;4.90;99.90
3942;DHT22;1985;48.592;8.850;2022-11-14T08:43:00;5.00;99.90
3942;DHT22;1985;48.592;8.850;2022-11-14T08:45:27;5.00;99.90
3942;DHT22;1985;48.592;8.850;2022-11-14T08:47:53;5.10;99.90
3942;DHT22;1985;48.592;8.850;2022-11-14T08:50:18;5.20;99.90
3942;DHT22;1985;48.592;8.850;2022-11-14T08:52:49;5.40;99.90
3942;DHT22;1985;48.592;8.850;2022-11-14T08:55:15;5.50;99.90
3942;DHT22;1985;48.592;8.850;2022-11-14T08:57:41;5.30;99.90
3942;DHT22;1985;48.592;8.850;2022-11-14T09:00:07;5.20;99.90
3942;DHT22;1985;48.592;8.850;2022-11-14T09:02:33;5.20;99.90
3942;DHT22;1985;48.592;8.850;2022-11-14T09:04:59;5.30;99.90
3942;DHT22;1985;48.592;8.850;2022-11-14T09:07:24;5.40;99.90
3942;DHT22;1985;48.592;8.850;2022-11-14T09:09:50;5.50;99.90
3942;DHT22;1985;48.592;8.850;2022-11-14T09:12:16;5.60;99.90
3942;DHT22;1985;48.592;8.850;2022-11-14T09:14:42;5.70;99.90
3942;DHT22;1985;48.592;8.850;2022-11-14T09:17:08;5.60;99.90
3942;DHT22;1985;48.592;8.850;2022-11-14T09:19:33;5.70;99.90
3942;DHT22;1985;48.592;8.850;2022-11-14T09:21:59;5.80;99.90
3942;DHT22;1985;48.592;8.850;2022-11-14T09:24:24;6.00;99.90
3942;DHT22;1985;48.592;8.850;2022-11-14T09:26:50;6.30;99.90
3942;DHT22;1985;48.592;8.850;2022-11-14T09:29:17;6.60;99.90
3942;DHT22;1985;48.592;8.850;2022-11-14T09:31:43;6.70;99.90
3942;DHT22;1985;48.592;8.850;2022-11-14T09:34:09;6.90;99.90
3942;DHT22;1985;48.592;8.850;2022-11-14T09:36:35;7.00;99.90
3942;DHT22;1985;48.592;8.850;2022-11-14T09:39:00;7.10;99.90
3942;DHT22;1985;48.592;8.850;2022-11-14T09:48:55;7.60;99.90
3942;DHT22;1985;48.592;8.850;2022-11-14T09:51:32;7.70;99.90
3942;DHT22;1985;48.592;8.850;2022-11-14T09:54:25;7.80;99.90
3942;DHT22;1985;48.592;8.850;2022-11-14T09:56:52;8.00;99.90
3942;DHT22;1985;48.592;8.850;2022-11-14T09:59:18;8.00;99.90
3942;DHT22;1985;48.592;8.850;2022-11-14T10:04:55;7.90;99.90
3942;DHT22;1985;48.592;8.850;2022-11-14T10:10:42;8.10;99.90
3942;DHT22;1985;48.592;8.850;2022-11-14T10:19:13;8.20;99.90
3942;DHT22;1985;48.592;8.850;2022-11-14T10:24:32;8.30;99.90
3942;DHT22;1985;48.592;8.850;2022-11-14T10:27:02;8.40;99.90
3942;DHT22;1985;48.592;8.850;2022-11-14T10:35:03;8.50;99.90
3942;DHT22;1985;48.592;8.850;2022-11-14T10:37:39;8.50;99.90
3942;DHT22;1985;48.592;8.850;2022-11-14T10:42:48;8.50;99.90
3942;DHT22;1985;48.592;8.850;2022-11-14T10:47:55;8.40;99.90
3942;DHT22;1985;48.592;8.850;2022-11-14T10:50:27;8.60;99.90
3942;DHT22;1985;48.592;8.850;2022-11-14T10:53:00;8.50;99.90
3942;DHT22;1985;48.592;8.850;2022-11-14T10:55:29;8.60;99.90
3942;DHT22;1985;48.592;8.850;2022-11-14T10:57:55;8.70;99.90
3942;DHT22;1985;48.592;8.850;2022-11-14T11:00:22;8.80;99.90
3942;DHT22;1985;48.592;8.850;2022-11-14T11:05:17;8.60;99.90
3942;DHT22;1985;48.592;8.850;2022-11-14T11:07:44;8.50;99.90
3942;DHT22;1985;48.592;8.850;2022-11-14T11:10:30;8.50;99.90
3942;DHT22;1985;48.592;8.850;2022-11-14T11:13:32;8.60;99.90
3942;DHT22;1985;48.592;8.850;2022-11-14T11:16:00;8.60;99.90
3942;DHT22;1985;48.592;8.850;2022-11-14T11:18:34;8.70;99.90
3942;DHT22;1985;48.592;8.850;2022-11-14T11:21:10;8.60;99.90
3942;DHT22;1985;48.592;8.850;2022-11-14T11:23:56;8.70;99.90
3942;DHT22;1985;48.592;8.850;2022-11-14T11:26:25;8.70;99.90
3942;DHT22;1985;48.592;8.850;2022-11-14T11:31:27;8.70;99.90
3942;DHT22;1985;48.592;8.850;2022-11-14T11:33:53;8.80;99.90
3942;DHT22;1985;48.592;8.850;2022-11-14T11:36:22;8.90;99.90
3942;DHT22;1985;48.592;8.850;2022-11-14T11:38:49;9.00;99.90
3942;DHT22;1985;48.592;8.850;2022-11-14T11:41:21;9.10;99.90
3942;DHT22;1985;48.592;8.850;2022-11-14T11:44:02;9.30;99.90
3942;DHT22;1985;48.592;8.850;2022-11-14T11:51:44;9.90;99.90
3942;DHT22;1985;48.592;8.850;2022-11-14T11:54:16;10.10;99.90
3942;DHT22;1985;48.592;8.850;2022-11-14T11:56:46;10.30;99.90
3942;DHT22;1985;48.592;8.850;2022-11-14T11:59:37;10.40;99.90
3942;DHT22;1985;48.592;8.850;2022-11-14T12:02:35;10.60;99.90
3942;DHT22;1985;48.592;8.850;2022-11-14T12:05:06;10.80;99.90
3942;DHT22;1985;48.592;8.850;2022-11-14T12:07:35;11.60;99.90
3942;DHT22;1985;48.592;8.850;2022-11-14T12:10:14;13.10;99.90
3942;DHT22;1985;48.592;8.850;2022-11-14T12:15:44;15.80;99.90
3942;DHT22;1985;48.592;8.850;2022-11-14T12:23:55;15.30;99.90
3942;DHT22;1985;48.592;8.850;2022-11-14T12:32:05;15.60;99.90
3942;DHT22;1985;48.592;8.850;2022-11-14T12:34:39;16.60;99.90
3942;DHT22;1985;48.592;8.850;2022-11-14T12:37:21;17.40;99.90
3942;DHT22;1985;48.592;8.850;2022-11-14T12:39:58;16.30;99.90
3942;DHT22;1985;48.592;8.850;2022-11-14T12:42:24;15.90;99.90
3942;DHT22;1985;48.592;8.850;2022-11-14T12:44:50;15.70;99.90
3942;DHT22;1985;48.592;8.850;2022-11-14T12:47:17;15.10;99.90
3942;DHT22;1985;48.592;8.850;2022-11-14T13:00:26;13.00;99.90
3942;DHT22;1985;48.592;8.850;2022-11-14T13:06:06;12.80;99.90
3942;DHT22;1985;48.592;8.850;2022-11-14T13:11:36;13.20;99.90
3942;DHT22;1985;48.592;8.850;2022-11-14T13:14:22;13.80;99.90
3942;DHT22;1985;48.592;8.850;2022-11-14T13:26:33;15.90;99.90
3942;DHT22;1985;48.592;8.850;2022-11-14T13:28:55;16.80;99.90
3942;DHT22;1985;48.592;8.850;2022-11-14T13:31:48;16.50;99.90
3942;DHT22;1985;48.592;8.850;2022-11-14T13:50:38;14.20;99.90
3942;DHT22;1985;48.592;8.850;2022-11-14T13:53:22;13.90;99.90
3942;DHT22;1985;48.592;8.850;2022-11-14T14:14:48;12.30;99.90
3942;DHT22;1985;48.592;8.850;2022-11-14T14:17:31;12.50;99.90
3942;DHT22;1985;48.592;8.850;2022-11-14T14:31:09;12.20;99.90
3942;DHT22;1985;48.592;8.850;2022-11-14T14:33:40;12.10;99.90
3942;DHT22;1985;48.592;8.850;2022-11-14T14:36:24;12.10;99.90
3942;DHT22;1985;48.592;8.850;2022-11-14T14:39:05;12.00;99.90
3942;DHT22;1985;48.592;8.850;2022-11-14T14:41:33;11.80;99.90
3942;DHT22;1985;48.592;8.850;2022-11-14T14:44:00;11.80;99.90
3942;DHT22;1985;48.592;8.850;2022-11-14T14:46:28;11.80;99.90
3942;DHT22;1985;48.592;8.850;2022-11-14T14:48:54;11.80;99.90
3942;DHT22;1985;48.592;8.850;2022-11-14T14:51:32;11.70;99.90
3942;DHT22;1985;48.592;8.850;2022-11-14T14:53:58;11.70;99.90
3942;DHT22;1985;48.592;8.850;2022-11-14T14:56:26;11.80;99.90
3942;DHT22;1985;48.592;8.850;2022-11-14T14:58:52;11.80;99.90
3942;DHT22;1985;48.592;8.850;2022-11-14T15:01:20;11.90;99.90
3942;DHT22;1985;48.592;8.850;2022-11-14T15:03:54;11.70;99.90
3942;DHT22;1985;48.592;8.850;2022-11-14T15:06:35;11.70;99.90
3942;DHT22;1985;48.592;8.850;2022-11-14T15:09:08;11.70;99.90
3942;DHT22;1985;48.592;8.850;2022-11-14T15:11:38;11.70;99.90
3942;DHT22;1985;48.592;8.850;2022-11-14T15:14:05;11.70;99.90
3942;DHT22;1985;48.592;8.850;2022-11-14T15:16:32;11.60;99.90
3942;DHT22;1985;48.592;8.850;2022-11-14T15:18:58;11.50;99.90
3942;DHT22;1985;48.592;8.850;2022-11-14T15:21:29;11.50;99.90
3942;DHT22;1985;48.592;8.850;2022-11-14T15:24:20;11.50;99.90
3942;DHT22;1985;48.592;8.850;2022-11-14T15:26:49;11.50;99.90
3942;DHT22;1985;48.592;8.850;2022-11-14T15:29:23;11.30;99.90
3942;DHT22;1985;48.592;8.850;2022-11-14T15:39:39;11.00;99.90
3942;DHT22;1985;48.592;8.850;2022-11-14T15:42:18;11.00;99.90
3942;DHT22;1985;48.592;8.850;2022-11-14T15:44:44;11.00;99.90
3942;DHT22;1985;48.592;8.850;2022-11-14T15:47:40;10.90;99.90
3942;DHT22;1985;48.592;8.850;2022-11-14T15:53:05;10.80;99.90
3942;DHT22;1985;48.592;8.850;2022-11-14T15:55:31;10.60;99.90
3942;DHT22;1985;48.592;8.850;2022-11-14T15:57:57;10.60;99.90
3942;DHT22;1985;48.592;8.850;2022-11-14T16:00:23;10.60;99.90
3942;DHT22;1985;48.592;8.850;2022-11-14T16:02:54;10.60;99.90
3942;DHT22;1985;48.592;8.850;2022-11-14T16:05:29;10.60;99.90
3942;DHT22;1985;48.592;8.850;2022-11-14T16:07:55;10.60;99.90
3942;DHT22;1985;48.592;8.850;2022-11-14T16:10:23;10.60;99.90
3942;DHT22;1985;48.592;8.850;2022-11-14T16:12:49;10.60;99.90
3942;DHT22;1985;48.592;8.850;2022-11-14T16:15:16;10.50;99.90
3942;DHT22;1985;48.592;8.850;2022-11-14T16:17:44;10.50;99.90
3942;DHT22;1985;48.592;8.850;2022-11-14T16:22:42;10.40;99.90
3942;DHT22;1985;48.592;8.850;2022-11-14T16:25:46;10.30;99.90
3942;DHT22;1985;48.592;8.850;2022-11-14T16:28:04;10.30;99.90
3942;DHT22;1985;48.592;8.850;2022-11-14T16:30:30;10.30;99.90
3942;DHT22;1985;48.592;8.850;2022-11-14T16:32:56;10.20;99.90
3942;DHT22;1985;48.592;8.850;2022-11-14T16:35:24;10.20;99.90
3942;DHT22;1985;48.592;8.850;2022-11-14T16:37:50;10.30;99.90
3942;DHT22;1985;48.592;8.850;2022-11-14T16:40:22;10.30;99.90
3942;DHT22;1985;48.592;8.850;2022-11-14T16:42:48;10.30;99.90
3942;DHT22;1985;48.592;8.850;2022-11-14T16:45:15;10.20;99.90
3942;DHT22;1985;48.592;8.850;2022-11-14T16:47:41;10.20;99.90
3942;DHT22;1985;48.592;8.850;2022-11-14T16:50:07;10.20;99.90
3942;DHT22;1985;48.592;8.850;2022-11-14T16:52:33;10.20;99.90
3942;DHT22;1985;48.592;8.850;2022-11-14T16:54:58;10.30;99.90
3942;DHT22;1985;48.592;8.850;2022-11-14T16:57:24;10.30;99.90
3942;DHT22;1985;48.592;8.850;2022-11-14T16:59:50;10.30;99.90
3942;DHT22;1985;48.592;8.850;2022-11-14T17:02:18;10.30;99.90
3942;DHT22;1985;48.592;8.850;2022-11-14T17:04:44;10.40;99.90
3942;DHT22;1985;48.592;8.850;2022-11-14T17:07:11;10.40;99.90
3942;DHT22;1985;48.592;8.850;2022-11-14T17:09:36;10.50;99.90
3942;DHT22;1985;48.592;8.850;2022-11-14T17:12:02;10.50;99.90
3942;DHT22;1985;48.592;8.850;2022-11-14T17:14:28;10.60;99.90
3942;DHT22;1985;48.592;8.850;2022-11-14T17:16:54;10.60;99.90
3942;DHT22;1985;48.592;8.850;2022-11-14T17:19:20;10.70;99.90
3942;DHT22;1985;48.592;8.850;2022-11-14T17:21:45;10.80;99.90
3942;DHT22;1985;48.592;8.850;2022-11-14T17:24:11;10.80;99.90
3942;DHT22;1985;48.592;8.850;2022-11-14T17:26:37;10.90;99.90
3942;DHT22;1985;48.592;8.850;2022-11-14T17:29:03;10.80;99.90
3942;DHT22;1985;48.592;8.850;2022-11-14T17:31:29;10.80;99.90
3942;DHT22;1985;48.592;8.850;2022-11-14T17:33:56;10.80;99.90
3942;DHT22;1985;48.592;8.850;2022-11-14T17:36:24;10.60;99.90
3942;DHT22;1985;48.592;8.850;2022-11-14T17:38:50;10.60;99.90
3942;DHT22;1985;48.592;8.850;2022-11-14T17:41:16;10.40;99.90
3942;DHT22;1985;48.592;8.850;2022-11-14T17:43:42;10.40;99.90
3942;DHT22;1985;48.592;8.850;2022-11-14T17:46:09;10.50;99.90
3942;DHT22;1985;48.592;8.850;2022-11-14T17:48:35;10.50;99.90
3942;DHT22;1985;48.592;8.850;2022-11-14T17:51:10;10.60;99.90
3942;DHT22;1985;48.592;8.850;2022-11-14T17:53:36;10.60;99.90
3942;DHT22;1985;48.592;8.850;2022-11-14T17:56:02;10.60;99.90
3942;DHT22;1985;48.592;8.850;2022-11-14T17:58:29;10.60;99.90
3942;DHT22;1985;48.592;8.850;2022-11-14T18:00:54;10.60;99.90
3942;DHT22;1985;48.592;8.850;2022-11-14T18:03:23;10.60;99.90
3942;DHT22;1985;48.592;8.850;2022-11-14T18:05:49;10.70;99.90
3942;DHT22;1985;48.592;8.850;2022-11-14T18:08:14;10.70;99.90
3942;DHT22;1985;48.592;8.850;2022-11-14T18:10:40;10.80;99.90
3942;DHT22;1985;48.592;8.850;2022-11-14T18:13:05;10.80;99.90
3942;DHT22;1985;48.592;8.850;2022-11-14T18:15:31;10.80;99.90
3942;DHT22;1985;48.592;8.850;2022-11-14T18:17:57;10.80;99.90
3942;DHT22;1985;48.592;8.850;2022-11-14T18:20:23;10.80;99.90
3942;DHT22;1985;48.592;8.850;2022-11-14T18:22:49;10.80;99.90
3942;DHT22;1985;48.592;8.850;2022-11-14T18:25:15;10.90;99.90
3942;DHT22;1985;48.592;8.850;2022-11-14T18:27:40;10.90;99.90
3942;DHT22;1985;48.592;8.850;2022-11-14T18:30:06;11.00;99.90
3942;DHT22;1985;48.592;8.850;2022-11-14T18:32:32;11.10;99.90
3942;DHT22;1985;48.592;8.850;2022-11-14T18:34:57;11.00;99.90
3942;DHT22;1985;48.592;8.850;2022-11-14T18:37:23;11.10;99.90
3942;DHT22;1985;48.592;8.850;2022-11-14T18:39:49;11.00;99.90
3942;DHT22;1985;48.592;8.850;2022-11-14T18:42:14;11.00;99.90
3942;DHT22;1985;48.592;8.850;2022-11-14T18:44:40;11.00;99.90
3942;DHT22;1985;48.592;8.850;2022-11-14T18:47:06;11.00;99.90
3942;DHT22;1985;48.592;8.850;2022-11-14T18:49:32;11.00;99.90